sensor_id;sensor_type;location;lat;lon;timestamp;P1;durP1;ratioP1;P2;durP2;ratioP2
24617;SDS011;12762;51.730;5.356;2023-06-14T00:01:31;6.20;;;3.60;;
24617;SDS011;12762;51.730;5.356;2023-06-14T00:04:00;7.10;;;3.23;;
24617;SDS011;12762;51.730;5.356;2023-06-14T00:06:28;6.77;;;3.60;;
24617;SDS011;12762;51.730;5.356;2023-06-14T00:08:55;5.60;;;3.30;;
24617;SDS011;12762;51.730;5.356;2023-06-14T00:11:22;7.17;;;3.47;;
24617;SDS011;12762;51.730;5.356;2023-06-14T00:13:49;6.70;;;3.00;;
24617;SDS011;12762;51.730;5.356;2023-06-14T00:16:16;8.80;;;3.50;;
24617;SDS011;12762;51.730;5.356;2023-06-14T00:18:43;5.77;;;3.30;;
24617;SDS011;12762;51.730;5.356;2023-06-14T00:21:10;6.10;;;3.10;;
24617;SDS011;12762;51.730;5.356;2023-06-14T00:23:36;6.57;;;3.10;;
24617;SDS011;12762;51.730;5.356;2023-06-14T00:26:06;5.60;;;3.00;;
24617;SDS011;12762;51.730;5.356;2023-06-14T00:28:33;5.40;;;3.07;;
24617;SDS011;12762;51.730;5.356;2023-06-14T00:31:00;7.20;;;3.00;;
24617;SDS011;12762;51.730;5.356;2023-06-14T00:33:27;7.53;;;3.20;;
24617;SDS011;12762;51.730;5.356;2023-06-14T00:35:54;6.10;;;2.97;;
24617;SDS011;12762;51.730;5.356;2023-06-14T00:38:23;5.53;;;2.87;;
24617;SDS011;12762;51.730;5.356;2023-06-14T00:40:50;5.63;;;3.27;;
24617;SDS011;12762;51.730;5.356;2023-06-14T00:43:17;6.37;;;3.40;;
24617;SDS011;12762;51.730;5.356;2023-06-14T00:45:44;6.53;;;3.17;;
24617;SDS011;12762;51.730;5.356;2023-06-14T00:48:11;6.00;;;3.23;;
24617;SDS011;12762;51.730;5.356;2023-06-14T00:50:39;6.97;;;2.90;;
24617;SDS011;12762;51.730;5.356;2023-06-14T00:53:07;3.93;;;2.57;;
24617;SDS011;12762;51.730;5.356;2023-06-14T00:55:33;4.27;;;3.00;;
24617;SDS011;12762;51.730;5.356;2023-06-14T00:58:00;11.20;;;3.20;;
24617;SDS011;12762;51.730;5.356;2023-06-14T01:00:27;5.67;;;2.90;;
24617;SDS011;12762;51.730;5.356;2023-06-14T01:02:54;8.03;;;3.10;;
24617;SDS011;12762;51.730;5.356;2023-06-14T01:05:23;6.03;;;2.67;;
24617;SDS011;12762;51.730;5.356;2023-06-14T01:13:32;7.20;;;3.30;;
24617;SDS011;12762;51.730;5.356;2023-06-14T01:16:04;8.30;;;3.37;;
24617;SDS011;12762;51.730;5.356;2023-06-14T01:18:33;4.73;;;2.97;;
24617;SDS011;12762;51.730;5.356;2023-06-14T01:21:01;6.60;;;3.53;;
24617;SDS011;12762;51.730;5.356;2023-06-14T01:23:32;6.63;;;3.37;;
24617;SDS011;12762;51.730;5.356;2023-06-14T01:26:00;10.33;;;3.73;;
24617;SDS011;12762;51.730;5.356;2023-06-14T01:28:29;6.20;;;3.03;;
24617;SDS011;12762;51.730;5.356;2023-06-14T01:30:59;5.53;;;3.20;;
24617;SDS011;12762;51.730;5.356;2023-06-14T01:33:31;6.00;;;3.50;;
24617;SDS011;12762;51.730;5.356;2023-06-14T01:36:02;6.57;;;3.10;;
24617;SDS011;12762;51.730;5.356;2023-06-14T01:38:34;7.20;;;3.50;;
24617;SDS011;12762;51.730;5.356;2023-06-14T01:41:02;6.93;;;3.43;;
24617;SDS011;12762;51.730;5.356;2023-06-14T01:43:31;4.77;;;2.90;;
24617;SDS011;12762;51.730;5.356;2023-06-14T01:45:59;5.07;;;3.10;;
24617;SDS011;12762;51.730;5.356;2023-06-14T01:48:26;4.83;;;3.37;;
24617;SDS011;12762;51.730;5.356;2023-06-14T01:50:54;7.10;;;3.73;;
24617;SDS011;12762;51.730;5.356;2023-06-14T01:53:21;5.57;;;3.40;;
24617;SDS011;12762;51.730;5.356;2023-06-14T01:55:48;8.83;;;3.63;;
24617;SDS011;12762;51.730;5.356;2023-06-14T01:58:15;8.10;;;3.40;;
24617;SDS011;12762;51.730;5.356;2023-06-14T02:00:43;5.63;;;3.47;;
24617;SDS011;12762;51.730;5.356;2023-06-14T02:03:10;7.93;;;3.30;;
24617;SDS011;12762;51.730;5.356;2023-06-14T02:05:38;8.03;;;3.13;;
24617;SDS011;12762;51.730;5.356;2023-06-14T02:08:06;6.53;;;3.00;;
24617;SDS011;12762;51.730;5.356;2023-06-14T02:10:35;5.43;;;2.77;;
24617;SDS011;12762;51.730;5.356;2023-06-14T02:13:02;6.30;;;3.07;;
24617;SDS011;12762;51.730;5.356;2023-06-14T02:15:29;8.00;;;3.03;;
24617;SDS011;12762;51.730;5.356;2023-06-14T02:18:03;7.87;;;3.37;;
24617;SDS011;12762;51.730;5.356;2023-06-14T02:20:31;6.43;;;3.13;;
24617;SDS011;12762;51.730;5.356;2023-06-14T02:22:58;6.03;;;3.30;;
24617;SDS011;12762;51.730;5.356;2023-06-14T02:25:24;9.23;;;3.33;;
24617;SDS011;12762;51.730;5.356;2023-06-14T02:27:54;6.70;;;3.03;;
24617;SDS011;12762;51.730;5.356;2023-06-14T02:30:21;7.17;;;3.27;;
24617;SDS011;12762;51.730;5.356;2023-06-14T02:32:48;5.77;;;3.20;;
24617;SDS011;12762;51.730;5.356;2023-06-14T02:35:17;6.23;;;3.50;;
24617;SDS011;12762;51.730;5.356;2023-06-14T02:37:47;9.47;;;3.20;;
24617;SDS011;12762;51.730;5.356;2023-06-14T02:40:14;9.63;;;3.20;;
24617;SDS011;12762;51.730;5.356;2023-06-14T02:42:41;5.83;;;3.83;;
24617;SDS011;12762;51.730;5.356;2023-06-14T02:45:08;5.73;;;3.60;;
24617;SDS011;12762;51.730;5.356;2023-06-14T02:47:35;6.00;;;3.03;;
24617;SDS011;12762;51.730;5.356;2023-06-14T02:50:02;7.57;;;2.67;;
24617;SDS011;12762;51.730;5.356;2023-06-14T02:52:29;6.43;;;3.60;;
24617;SDS011;12762;51.730;5.356;2023-06-14T02:54:56;6.47;;;3.10;;
24617;SDS011;12762;51.730;5.356;2023-06-14T02:57:23;8.43;;;3.33;;
24617;SDS011;12762;51.730;5.356;2023-06-14T02:59:50;4.93;;;3.00;;
24617;SDS011;12762;51.730;5.356;2023-06-14T03:02:18;7.10;;;3.40;;
24617;SDS011;12762;51.730;5.356;2023-06-14T03:04:45;5.67;;;3.17;;
24617;SDS011;12762;51.730;5.356;2023-06-14T03:07:13;8.00;;;3.60;;
24617;SDS011;12762;51.730;5.356;2023-06-14T03:09:46;6.00;;;3.30;;
24617;SDS011;12762;51.730;5.356;2023-06-14T03:12:13;7.93;;;3.20;;
24617;SDS011;12762;51.730;5.356;2023-06-14T03:14:41;5.77;;;2.77;;
24617;SDS011;12762;51.730;5.356;2023-06-14T03:17:08;7.27;;;3.47;;
24617;SDS011;12762;51.730;5.356;2023-06-14T03:19:36;7.63;;;3.53;;
24617;SDS011;12762;51.730;5.356;2023-06-14T03:22:03;8.40;;;3.23;;
24617;SDS011;12762;51.730;5.356;2023-06-14T03:24:31;7.33;;;3.27;;
24617;SDS011;12762;51.730;5.356;2023-06-14T03:27:03;9.57;;;3.53;;
24617;SDS011;12762;51.730;5.356;2023-06-14T03:29:30;4.77;;;3.00;;
24617;SDS011;12762;51.730;5.356;2023-06-14T03:34:25;7.10;;;3.40;;
24617;SDS011;12762;51.730;5.356;2023-06-14T03:36:52;7.70;;;3.53;;
24617;SDS011;12762;51.730;5.356;2023-06-14T03:39:19;9.80;;;3.77;;
24617;SDS011;12762;51.730;5.356;2023-06-14T03:41:46;9.17;;;3.43;;
24617;SDS011;12762;51.730;5.356;2023-06-14T03:44:14;7.87;;;3.20;;
24617;SDS011;12762;51.730;5.356;2023-06-14T03:46:42;7.57;;;3.47;;
24617;SDS011;12762;51.730;5.356;2023-06-14T03:49:10;6.03;;;3.30;;
24617;SDS011;12762;51.730;5.356;2023-06-14T03:51:37;5.43;;;3.17;;
24617;SDS011;12762;51.730;5.356;2023-06-14T03:54:06;7.60;;;3.43;;
24617;SDS011;12762;51.730;5.356;2023-06-14T03:56:53;5.83;;;2.87;;
24617;SDS011;12762;51.730;5.356;2023-06-14T03:59:20;9.23;;;3.27;;
24617;SDS011;12762;51.730;5.356;2023-06-14T04:01:47;9.13;;;3.60;;
24617;SDS011;12762;51.730;5.356;2023-06-14T04:04:15;6.60;;;3.60;;
24617;SDS011;12762;51.730;5.356;2023-06-14T04:06:42;7.83;;;3.20;;
24617;SDS011;12762;51.730;5.356;2023-06-14T04:09:09;5.63;;;2.90;;
24617;SDS011;12762;51.730;5.356;2023-06-14T04:11:36;5.23;;;3.00;;
24617;SDS011;12762;51.730;5.356;2023-06-14T04:14:03;5.97;;;3.20;;
24617;SDS011;12762;51.730;5.356;2023-06-14T04:16:30;8.63;;;3.37;;
24617;SDS011;12762;51.730;5.356;2023-06-14T04:18:58;6.20;;;2.83;;
24617;SDS011;12762;51.730;5.356;2023-06-14T04:21:25;5.20;;;2.97;;
24617;SDS011;12762;51.730;5.356;2023-06-14T04:23:54;8.03;;;3.60;;
24617;SDS011;12762;51.730;5.356;2023-06-14T04:26:22;7.20;;;2.67;;
24617;SDS011;12762;51.730;5.356;2023-06-14T04:28:52;5.70;;;3.33;;
24617;SDS011;12762;51.730;5.356;2023-06-14T04:31:23;5.80;;;2.93;;
24617;SDS011;12762;51.730;5.356;2023-06-14T04:33:57;4.60;;;2.60;;
24617;SDS011;12762;51.730;5.356;2023-06-14T04:36:25;6.27;;;3.20;;
24617;SDS011;12762;51.730;5.356;2023-06-14T04:38:54;4.67;;;2.80;;
24617;SDS011;12762;51.730;5.356;2023-06-14T04:41:21;6.03;;;3.10;;
24617;SDS011;12762;51.730;5.356;2023-06-14T04:43:49;10.37;;;2.97;;
24617;SDS011;12762;51.730;5.356;2023-06-14T04:46:16;7.43;;;3.33;;
24617;SDS011;12762;51.730;5.356;2023-06-14T04:48:43;7.57;;;3.00;;
24617;SDS011;12762;51.730;5.356;2023-06-14T04:51:14;8.17;;;2.90;;
24617;SDS011;12762;51.730;5.356;2023-06-14T04:53:41;8.73;;;3.23;;
24617;SDS011;12762;51.730;5.356;2023-06-14T04:56:10;6.67;;;3.03;;
24617;SDS011;12762;51.730;5.356;2023-06-14T04:58:37;8.13;;;3.23;;
24617;SDS011;12762;51.730;5.356;2023-06-14T05:01:04;6.73;;;3.20;;
24617;SDS011;12762;51.730;5.356;2023-06-14T05:03:31;7.33;;;3.23;;
24617;SDS011;12762;51.730;5.356;2023-06-14T05:06:01;5.87;;;3.10;;
24617;SDS011;12762;51.730;5.356;2023-06-14T05:08:27;8.03;;;3.30;;
24617;SDS011;12762;51.730;5.356;2023-06-14T05:10:54;6.50;;;3.30;;
24617;SDS011;12762;51.730;5.356;2023-06-14T05:13:23;4.97;;;3.47;;
24617;SDS011;12762;51.730;5.356;2023-06-14T05:15:50;7.00;;;3.13;;
24617;SDS011;12762;51.730;5.356;2023-06-14T05:18:18;8.10;;;3.27;;
24617;SDS011;12762;51.730;5.356;2023-06-14T05:20:45;8.77;;;3.40;;
24617;SDS011;12762;51.730;5.356;2023-06-14T05:23:12;8.63;;;3.00;;
24617;SDS011;12762;51.730;5.356;2023-06-14T05:25:42;7.10;;;3.23;;
24617;SDS011;12762;51.730;5.356;2023-06-14T05:28:10;8.90;;;3.00;;
24617;SDS011;12762;51.730;5.356;2023-06-14T05:30:37;5.83;;;3.27;;
24617;SDS011;12762;51.730;5.356;2023-06-14T05:33:06;4.47;;;3.10;;
24617;SDS011;12762;51.730;5.356;2023-06-14T05:35:33;6.10;;;2.93;;
24617;SDS011;12762;51.730;5.356;2023-06-14T05:38:00;7.43;;;3.30;;
24617;SDS011;12762;51.730;5.356;2023-06-14T05:40:27;4.97;;;3.07;;
24617;SDS011;12762;51.730;5.356;2023-06-14T05:42:54;6.37;;;3.20;;
24617;SDS011;12762;51.730;5.356;2023-06-14T05:45:21;7.63;;;2.97;;
24617;SDS011;12762;51.730;5.356;2023-06-14T05:47:48;8.87;;;3.40;;
24617;SDS011;12762;51.730;5.356;2023-06-14T05:50:15;6.70;;;3.17;;
24617;SDS011;12762;51.730;5.356;2023-06-14T05:52:42;7.67;;;3.33;;
24617;SDS011;12762;51.730;5.356;2023-06-14T05:55:09;6.13;;;3.07;;
24617;SDS011;12762;51.730;5.356;2023-06-14T05:57:39;6.33;;;3.30;;
24617;SDS011;12762;51.730;5.356;2023-06-14T06:00:07;5.73;;;2.77;;
24617;SDS011;12762;51.730;5.356;2023-06-14T06:02:37;6.17;;;3.07;;
24617;SDS011;12762;51.730;5.356;2023-06-14T06:05:05;7.67;;;3.33;;
24617;SDS011;12762;51.730;5.356;2023-06-14T06:07:33;6.40;;;3.20;;
24617;SDS011;12762;51.730;5.356;2023-06-14T06:10:03;5.77;;;3.20;;
24617;SDS011;12762;51.730;5.356;2023-06-14T06:12:31;9.00;;;3.40;;
24617;SDS011;12762;51.730;5.356;2023-06-14T06:14:59;9.23;;;2.83;;
24617;SDS011;12762;51.730;5.356;2023-06-14T06:17:26;6.20;;;2.60;;
24617;SDS011;12762;51.730;5.356;2023-06-14T06:20:07;7.40;;;2.90;;
24617;SDS011;12762;51.730;5.356;2023-06-14T06:22:36;5.63;;;2.63;;
24617;SDS011;12762;51.730;5.356;2023-06-14T06:25:02;11.10;;;3.00;;
24617;SDS011;12762;51.730;5.356;2023-06-14T06:27:30;8.27;;;2.93;;
24617;SDS011;12762;51.730;5.356;2023-06-14T06:29:56;4.63;;;2.70;;
24617;SDS011;12762;51.730;5.356;2023-06-14T06:32:25;5.73;;;2.80;;
24617;SDS011;12762;51.730;5.356;2023-06-14T06:34:52;6.57;;;2.73;;
24617;SDS011;12762;51.730;5.356;2023-06-14T06:37:19;6.60;;;2.93;;
24617;SDS011;12762;51.730;5.356;2023-06-14T06:39:46;4.80;;;2.57;;
24617;SDS011;12762;51.730;5.356;2023-06-14T06:42:14;7.70;;;2.90;;
24617;SDS011;12762;51.730;5.356;2023-06-14T06:44:41;11.80;;;2.80;;
24617;SDS011;12762;51.730;5.356;2023-06-14T06:47:08;7.57;;;3.07;;
24617;SDS011;12762;51.730;5.356;2023-06-14T06:49:36;6.10;;;2.80;;
24617;SDS011;12762;51.730;5.356;2023-06-14T06:52:06;8.83;;;2.83;;
24617;SDS011;12762;51.730;5.356;2023-06-14T06:54:33;6.97;;;2.57;;
24617;SDS011;12762;51.730;5.356;2023-06-14T06:57:01;6.07;;;2.73;;
24617;SDS011;12762;51.730;5.356;2023-06-14T06:59:28;6.47;;;2.50;;
24617;SDS011;12762;51.730;5.356;2023-06-14T07:01:58;4.57;;;2.50;;
24617;SDS011;12762;51.730;5.356;2023-06-14T07:04:25;6.23;;;2.67;;
24617;SDS011;12762;51.730;5.356;2023-06-14T07:06:52;5.90;;;2.80;;
24617;SDS011;12762;51.730;5.356;2023-06-14T07:09:19;6.40;;;2.90;;
24617;SDS011;12762;51.730;5.356;2023-06-14T07:11:46;6.57;;;3.33;;
24617;SDS011;12762;51.730;5.356;2023-06-14T07:14:13;7.70;;;3.25;;
24617;SDS011;12762;51.730;5.356;2023-06-14T07:16:40;6.50;;;2.70;;
24617;SDS011;12762;51.730;5.356;2023-06-14T07:19:07;4.60;;;3.00;;
24617;SDS011;12762;51.730;5.356;2023-06-14T07:21:35;4.60;;;2.42;;
24617;SDS011;12762;51.730;5.356;2023-06-14T07:24:05;6.15;;;2.50;;
24617;SDS011;12762;51.730;5.356;2023-06-14T07:26:35;5.63;;;2.28;;
24617;SDS011;12762;51.730;5.356;2023-06-14T07:29:02;8.02;;;2.72;;
24617;SDS011;12762;51.730;5.356;2023-06-14T07:31:29;6.00;;;2.55;;
24617;SDS011;12762;51.730;5.356;2023-06-14T07:33:56;5.35;;;2.25;;
24617;SDS011;12762;51.730;5.356;2023-06-14T07:36:23;7.30;;;2.50;;
24617;SDS011;12762;51.730;5.356;2023-06-14T07:38:50;4.63;;;2.65;;
24617;SDS011;12762;51.730;5.356;2023-06-14T07:41:17;6.55;;;2.50;;
24617;SDS011;12762;51.730;5.356;2023-06-14T07:43:44;6.65;;;2.60;;
24617;SDS011;12762;51.730;5.356;2023-06-14T07:46:11;9.05;;;2.67;;
24617;SDS011;12762;51.730;5.356;2023-06-14T07:48:38;6.85;;;2.50;;
24617;SDS011;12762;51.730;5.356;2023-06-14T07:51:05;6.53;;;2.45;;
24617;SDS011;12762;51.730;5.356;2023-06-14T07:53:32;4.18;;;2.58;;
24617;SDS011;12762;51.730;5.356;2023-06-14T07:55:59;6.00;;;2.60;;
24617;SDS011;12762;51.730;5.356;2023-06-14T07:58:26;5.72;;;2.67;;
24617;SDS011;12762;51.730;5.356;2023-06-14T08:00:53;3.58;;;2.33;;
24617;SDS011;12762;51.730;5.356;2023-06-14T08:03:20;5.28;;;2.22;;
24617;SDS011;12762;51.730;5.356;2023-06-14T08:05:49;5.35;;;2.03;;
24617;SDS011;12762;51.730;5.356;2023-06-14T08:08:16;4.93;;;2.13;;
24617;SDS011;12762;51.730;5.356;2023-06-14T08:10:43;3.65;;;2.10;;
24617;SDS011;12762;51.730;5.356;2023-06-14T08:13:10;4.63;;;2.13;;
24617;SDS011;12762;51.730;5.356;2023-06-14T08:15:38;5.28;;;2.47;;
24617;SDS011;12762;51.730;5.356;2023-06-14T08:18:05;7.53;;;2.47;;
24617;SDS011;12762;51.730;5.356;2023-06-14T08:20:32;4.75;;;2.28;;
24617;SDS011;12762;51.730;5.356;2023-06-14T08:22:59;4.20;;;2.25;;
24617;SDS011;12762;51.730;5.356;2023-06-14T08:25:31;3.70;;;2.00;;
24617;SDS011;12762;51.730;5.356;2023-06-14T08:27:59;6.55;;;2.30;;
24617;SDS011;12762;51.730;5.356;2023-06-14T08:30:26;5.57;;;2.28;;
24617;SDS011;12762;51.730;5.356;2023-06-14T08:32:53;4.88;;;2.05;;
24617;SDS011;12762;51.730;5.356;2023-06-14T08:35:35;3.95;;;2.00;;
24617;SDS011;12762;51.730;5.356;2023-06-14T08:38:09;5.93;;;2.00;;
24617;SDS011;12762;51.730;5.356;2023-06-14T08:40:39;3.35;;;2.20;;
24617;SDS011;12762;51.730;5.356;2023-06-14T08:43:08;5.57;;;2.10;;
24617;SDS011;12762;51.730;5.356;2023-06-14T08:45:35;6.25;;;2.30;;
24617;SDS011;12762;51.730;5.356;2023-06-14T08:48:02;5.05;;;2.28;;
24617;SDS011;12762;51.730;5.356;2023-06-14T08:50:32;7.10;;;2.20;;
24617;SDS011;12762;51.730;5.356;2023-06-14T08:53:01;2.80;;;2.03;;
24617;SDS011;12762;51.730;5.356;2023-06-14T08:55:30;3.17;;;1.80;;
24617;SDS011;12762;51.730;5.356;2023-06-14T08:58:02;3.53;;;1.75;;
24617;SDS011;12762;51.730;5.356;2023-06-14T09:00:31;3.47;;;1.65;;
24617;SDS011;12762;51.730;5.356;2023-06-14T09:03:02;2.83;;;1.60;;
24617;SDS011;12762;51.730;5.356;2023-06-14T09:05:30;4.75;;;1.60;;
24617;SDS011;12762;51.730;5.356;2023-06-14T09:08:00;2.58;;;1.85;;
24617;SDS011;12762;51.730;5.356;2023-06-14T09:10:32;2.88;;;1.38;;
24617;SDS011;12762;51.730;5.356;2023-06-14T09:13:04;3.72;;;1.27;;
24617;SDS011;12762;51.730;5.356;2023-06-14T09:15:31;1.40;;;1.30;;
24617;SDS011;12762;51.730;5.356;2023-06-14T09:18:00;3.15;;;1.48;;
24617;SDS011;12762;51.730;5.356;2023-06-14T09:20:29;1.77;;;1.60;;
24617;SDS011;12762;51.730;5.356;2023-06-14T09:22:57;3.25;;;1.40;;
24617;SDS011;12762;51.730;5.356;2023-06-14T09:25:24;3.35;;;1.20;;
24617;SDS011;12762;51.730;5.356;2023-06-14T09:28:06;7.70;;;1.60;;
24617;SDS011;12762;51.730;5.356;2023-06-14T09:30:36;4.50;;;1.10;;
24617;SDS011;12762;51.730;5.356;2023-06-14T09:33:04;1.67;;;1.27;;
24617;SDS011;12762;51.730;5.356;2023-06-14T09:35:34;1.52;;;1.13;;
24617;SDS011;12762;51.730;5.356;2023-06-14T09:38:02;1.52;;;1.15;;
24617;SDS011;12762;51.730;5.356;2023-06-14T09:40:35;6.80;;;1.30;;
24617;SDS011;12762;51.730;5.356;2023-06-14T09:43:06;2.83;;;1.25;;
24617;SDS011;12762;51.730;5.356;2023-06-14T09:45:38;1.45;;;1.08;;
24617;SDS011;12762;51.730;5.356;2023-06-14T09:48:06;4.72;;;1.20;;
24617;SDS011;12762;51.730;5.356;2023-06-14T09:50:34;1.80;;;1.00;;
24617;SDS011;12762;51.730;5.356;2023-06-14T09:53:11;2.13;;;1.10;;
24617;SDS011;12762;51.730;5.356;2023-06-14T09:55:40;1.77;;;1.13;;
24617;SDS011;12762;51.730;5.356;2023-06-14T09:58:08;1.77;;;0.93;;
24617;SDS011;12762;51.730;5.356;2023-06-14T10:00:36;1.80;;;0.95;;
24617;SDS011;12762;51.730;5.356;2023-06-14T10:03:11;2.25;;;1.13;;
24617;SDS011;12762;51.730;5.356;2023-06-14T10:05:45;5.00;;;1.40;;
24617;SDS011;12762;51.730;5.356;2023-06-14T10:08:16;2.17;;;1.20;;
24617;SDS011;12762;51.730;5.356;2023-06-14T10:10:45;2.33;;;1.40;;
24617;SDS011;12762;51.730;5.356;2023-06-14T10:13:20;3.05;;;1.05;;
24617;SDS011;12762;51.730;5.356;2023-06-14T10:21:16;2.85;;;1.50;;
24617;SDS011;12762;51.730;5.356;2023-06-14T10:23:47;1.30;;;1.10;;
24617;SDS011;12762;51.730;5.356;2023-06-14T10:26:19;4.05;;;1.20;;
24617;SDS011;12762;51.730;5.356;2023-06-14T10:31:41;1.95;;;1.25;;
24617;SDS011;12762;51.730;5.356;2023-06-14T10:37:00;2.55;;;1.33;;
24617;SDS011;12762;51.730;5.356;2023-06-14T10:39:32;2.40;;;1.40;;
24617;SDS011;12762;51.730;5.356;2023-06-14T10:42:05;2.60;;;1.45;;
24617;SDS011;12762;51.730;5.356;2023-06-14T10:47:06;2.72;;;1.40;;
24617;SDS011;12762;51.730;5.356;2023-06-14T10:52:12;10.63;;;1.80;;
24617;SDS011;12762;51.730;5.356;2023-06-14T10:54:59;2.50;;;1.20;;
24617;SDS011;12762;51.730;5.356;2023-06-14T10:57:53;4.38;;;1.40;;
24617;SDS011;12762;51.730;5.356;2023-06-14T11:00:26;1.85;;;1.20;;
24617;SDS011;12762;51.730;5.356;2023-06-14T11:11:06;2.78;;;1.27;;
24617;SDS011;12762;51.730;5.356;2023-06-14T11:13:36;3.33;;;1.40;;
24617;SDS011;12762;51.730;5.356;2023-06-14T11:16:13;3.25;;;1.30;;
24617;SDS011;12762;51.730;5.356;2023-06-14T11:18:41;2.70;;;1.48;;
24617;SDS011;12762;51.730;5.356;2023-06-14T11:21:10;3.35;;;1.20;;
24617;SDS011;12762;51.730;5.356;2023-06-14T11:23:39;4.65;;;1.52;;
24617;SDS011;12762;51.730;5.356;2023-06-14T11:26:06;2.88;;;1.55;;
24617;SDS011;12762;51.730;5.356;2023-06-14T11:28:37;1.70;;;1.20;;
24617;SDS011;12762;51.730;5.356;2023-06-14T11:31:07;3.10;;;1.15;;
24617;SDS011;12762;51.730;5.356;2023-06-14T11:33:35;2.70;;;1.20;;
24617;SDS011;12762;51.730;5.356;2023-06-14T11:36:03;2.75;;;1.38;;
24617;SDS011;12762;51.730;5.356;2023-06-14T11:38:37;2.70;;;1.40;;
24617;SDS011;12762;51.730;5.356;2023-06-14T11:41:04;3.40;;;1.15;;
24617;SDS011;12762;51.730;5.356;2023-06-14T11:43:31;3.70;;;1.40;;
24617;SDS011;12762;51.730;5.356;2023-06-14T11:45:59;2.78;;;1.17;;
24617;SDS011;12762;51.730;5.356;2023-06-14T11:48:40;2.88;;;1.20;;
24617;SDS011;12762;51.730;5.356;2023-06-14T11:51:10;3.35;;;1.40;;
24617;SDS011;12762;51.730;5.356;2023-06-14T11:53:37;3.90;;;1.58;;
24617;SDS011;12762;51.730;5.356;2023-06-14T11:56:04;2.97;;;1.33;;
24617;SDS011;12762;51.730;5.356;2023-06-14T11:58:32;2.03;;;1.30;;
24617;SDS011;12762;51.730;5.356;2023-06-14T12:00:59;1.85;;;1.25;;
24617;SDS011;12762;51.730;5.356;2023-06-14T12:03:26;1.38;;;1.27;;
24617;SDS011;12762;51.730;5.356;2023-06-14T12:06:03;1.27;;;1.10;;
24617;SDS011;12762;51.730;5.356;2023-06-14T12:08:37;2.17;;;1.17;;
24617;SDS011;12762;51.730;5.356;2023-06-14T12:11:11;1.70;;;1.30;;
24617;SDS011;12762;51.730;5.356;2023-06-14T12:13:41;2.35;;;1.50;;
24617;SDS011;12762;51.730;5.356;2023-06-14T12:16:10;3.10;;;1.40;;
24617;SDS011;12762;51.730;5.356;2023-06-14T12:18:39;3.25;;;1.30;;
24617;SDS011;12762;51.730;5.356;2023-06-14T12:21:07;1.80;;;1.48;;
24617;SDS011;12762;51.730;5.356;2023-06-14T12:26:06;3.25;;;1.73;;
24617;SDS011;12762;51.730;5.356;2023-06-14T12:28:37;2.22;;;1.30;;
24617;SDS011;12762;51.730;5.356;2023-06-14T12:31:06;1.90;;;1.48;;
24617;SDS011;12762;51.730;5.356;2023-06-14T12:33:33;2.80;;;1.20;;
24617;SDS011;12762;51.730;5.356;2023-06-14T12:36:02;2.20;;;1.23;;
24617;SDS011;12762;51.730;5.356;2023-06-14T12:38:30;3.22;;;1.58;;
24617;SDS011;12762;51.730;5.356;2023-06-14T12:40:57;2.45;;;1.67;;
24617;SDS011;12762;51.730;5.356;2023-06-14T12:43:24;2.55;;;1.20;;
24617;SDS011;12762;51.730;5.356;2023-06-14T12:45:51;1.45;;;1.23;;
24617;SDS011;12762;51.730;5.356;2023-06-14T12:48:17;2.13;;;1.30;;
24617;SDS011;12762;51.730;5.356;2023-06-14T12:50:45;3.67;;;1.60;;
24617;SDS011;12762;51.730;5.356;2023-06-14T12:53:13;1.77;;;1.40;;
24617;SDS011;12762;51.730;5.356;2023-06-14T12:55:40;9.95;;;1.80;;
24617;SDS011;12762;51.730;5.356;2023-06-14T12:58:07;4.07;;;1.40;;
24617;SDS011;12762;51.730;5.356;2023-06-14T13:00:35;4.00;;;1.90;;
24617;SDS011;12762;51.730;5.356;2023-06-14T13:03:01;2.60;;;1.52;;
24617;SDS011;12762;51.730;5.356;2023-06-14T13:05:28;2.72;;;1.38;;
24617;SDS011;12762;51.730;5.356;2023-06-14T13:07:57;2.80;;;1.40;;
24617;SDS011;12762;51.730;5.356;2023-06-14T13:10:25;2.53;;;1.42;;
24617;SDS011;12762;51.730;5.356;2023-06-14T13:12:53;1.98;;;1.13;;
24617;SDS011;12762;51.730;5.356;2023-06-14T13:15:20;2.40;;;1.33;;
24617;SDS011;12762;51.730;5.356;2023-06-14T13:17:47;2.80;;;1.55;;
24617;SDS011;12762;51.730;5.356;2023-06-14T13:20:15;1.60;;;1.13;;
24617;SDS011;12762;51.730;5.356;2023-06-14T13:22:46;1.95;;;1.27;;
24617;SDS011;12762;51.730;5.356;2023-06-14T13:25:13;2.38;;;1.40;;
24617;SDS011;12762;51.730;5.356;2023-06-14T13:27:39;3.30;;;1.10;;
24617;SDS011;12762;51.730;5.356;2023-06-14T13:30:06;2.00;;;1.30;;
24617;SDS011;12762;51.730;5.356;2023-06-14T13:32:35;2.50;;;1.35;;
24617;SDS011;12762;51.730;5.356;2023-06-14T13:35:02;3.35;;;1.30;;
24617;SDS011;12762;51.730;5.356;2023-06-14T13:37:30;1.88;;;1.30;;
24617;SDS011;12762;51.730;5.356;2023-06-14T13:39:57;1.60;;;1.10;;
24617;SDS011;12762;51.730;5.356;2023-06-14T13:42:24;2.97;;;1.27;;
24617;SDS011;12762;51.730;5.356;2023-06-14T13:44:51;2.92;;;1.63;;
24617;SDS011;12762;51.730;5.356;2023-06-14T13:47:22;3.50;;;1.55;;
24617;SDS011;12762;51.730;5.356;2023-06-14T13:49:49;2.53;;;1.60;;
24617;SDS011;12762;51.730;5.356;2023-06-14T13:52:16;2.50;;;1.55;;
24617;SDS011;12762;51.730;5.356;2023-06-14T13:54:43;3.88;;;1.25;;
24617;SDS011;12762;51.730;5.356;2023-06-14T13:57:11;2.33;;;1.25;;
24617;SDS011;12762;51.730;5.356;2023-06-14T13:59:40;2.67;;;1.10;;
24617;SDS011;12762;51.730;5.356;2023-06-14T14:02:07;4.18;;;1.25;;
24617;SDS011;12762;51.730;5.356;2023-06-14T14:04:37;2.70;;;1.30;;
24617;SDS011;12762;51.730;5.356;2023-06-14T14:07:05;1.27;;;0.93;;
24617;SDS011;12762;51.730;5.356;2023-06-14T14:09:33;1.35;;;0.90;;
24617;SDS011;12762;51.730;5.356;2023-06-14T14:12:01;1.90;;;1.10;;
24617;SDS011;12762;51.730;5.356;2023-06-14T14:14:31;1.98;;;1.17;;
24617;SDS011;12762;51.730;5.356;2023-06-14T14:17:06;3.70;;;1.17;;
24617;SDS011;12762;51.730;5.356;2023-06-14T14:19:32;1.63;;;1.02;;
24617;SDS011;12762;51.730;5.356;2023-06-14T14:22:02;1.33;;;0.85;;
24617;SDS011;12762;51.730;5.356;2023-06-14T14:24:29;2.90;;;1.23;;
24617;SDS011;12762;51.730;5.356;2023-06-14T14:26:56;2.35;;;1.00;;
24617;SDS011;12762;51.730;5.356;2023-06-14T14:29:26;1.90;;;0.75;;
24617;SDS011;12762;51.730;5.356;2023-06-14T14:31:55;3.10;;;1.17;;
24617;SDS011;12762;51.730;5.356;2023-06-14T14:34:23;4.47;;;1.40;;
24617;SDS011;12762;51.730;5.356;2023-06-14T14:36:51;2.80;;;1.10;;
24617;SDS011;12762;51.730;5.356;2023-06-14T14:39:18;1.38;;;1.00;;
24617;SDS011;12762;51.730;5.356;2023-06-14T14:41:45;1.92;;;0.90;;
24617;SDS011;12762;51.730;5.356;2023-06-14T14:44:11;1.48;;;0.82;;
24617;SDS011;12762;51.730;5.356;2023-06-14T14:46:38;2.33;;;1.00;;
24617;SDS011;12762;51.730;5.356;2023-06-14T14:49:05;2.33;;;0.95;;
24617;SDS011;12762;51.730;5.356;2023-06-14T14:51:32;4.13;;;0.90;;
24617;SDS011;12762;51.730;5.356;2023-06-14T14:53:59;2.72;;;0.90;;
24617;SDS011;12762;51.730;5.356;2023-06-14T14:56:26;2.03;;;0.82;;
24617;SDS011;12762;51.730;5.356;2023-06-14T14:58:53;3.17;;;1.02;;
24617;SDS011;12762;51.730;5.356;2023-06-14T15:01:20;3.17;;;0.90;;
24617;SDS011;12762;51.730;5.356;2023-06-14T15:03:47;1.35;;;1.00;;
24617;SDS011;12762;51.730;5.356;2023-06-14T15:06:25;1.13;;;0.80;;
24617;SDS011;12762;51.730;5.356;2023-06-14T15:08:52;2.20;;;1.00;;
24617;SDS011;12762;51.730;5.356;2023-06-14T15:11:19;1.63;;;0.70;;
24617;SDS011;12762;51.730;5.356;2023-06-14T15:13:46;3.00;;;1.00;;
24617;SDS011;12762;51.730;5.356;2023-06-14T15:16:13;1.48;;;0.73;;
24617;SDS011;12762;51.730;5.356;2023-06-14T15:18:43;2.78;;;0.90;;
24617;SDS011;12762;51.730;5.356;2023-06-14T15:21:11;3.10;;;0.80;;
24617;SDS011;12762;51.730;5.356;2023-06-14T15:23:39;1.30;;;0.95;;
24617;SDS011;12762;51.730;5.356;2023-06-14T15:26:06;2.08;;;0.77;;
24617;SDS011;12762;51.730;5.356;2023-06-14T15:28:33;0.90;;;0.90;;
24617;SDS011;12762;51.730;5.356;2023-06-14T15:31:00;2.30;;;0.88;;